Time;durP1;ratioP1;P1;durP2;ratioP2;P2;SDS_P1;SDS_P2;PMS_P1;PMS_P2;Temp;Humidity;BMP_temperature;BMP_pressure;BME280_temperature;BME280_humidity;BME280_pressure;Samples;Min_cycle;Max_cycle;Signal;HPM_P1;HPM_P2
2023/04/26 00:02:23;;;;;;;6.20;3.35;;;;;;;;;;6242920;23;20008;-74
2023/04/26 00:04:57;;;;;;;4.70;2.83;;;;;;;;;;6216610;23;20457;-74
2023/04/26 00:07:27;;;;;;;5.75;3.08;;;;;;;;;;6242927;23;20080;-73
2023/04/26 00:09:53;;;;;;;5.45;2.80;;;;;;;;;;6215974;23;20004;-73
2023/04/26 00:12:18;;;;;;;6.65;2.90;;;;;;;;;;6240852;23;20008;-74
2023/04/26 00:15:03;;;;;;;5.60;2.83;;;;;;;;;;6242139;23;20331;-77
2023/04/26 00:17:28;;;;;;;4.28;2.47;;;;;;;;;;6239875;23;20023;-73
2023/04/26 00:19:56;;;;;;;5.43;2.70;;;;;;;;;;6241410;23;20000;-77
2023/04/26 00:22:22;;;;;;;5.25;3.05;;;;;;;;;;6215517;23;20061;-73
2023/04/26 00:24:47;;;;;;;5.13;2.85;;;;;;;;;;6214447;23;20008;-74
2023/04/26 00:27:12;;;;;;;7.45;3.33;;;;;;;;;;6244262;23;20071;-73
2023/04/26 00:29:38;;;;;;;5.35;2.95;;;;;;;;;;6242162;23;20008;-74
2023/04/26 00:32:04;;;;;;;6.70;2.97;;;;;;;;;;6217707;23;20004;-76
2023/04/26 00:34:36;;;;;;;6.95;3.78;;;;;;;;;;6240825;23;20008;-73
2023/04/26 00:37:02;;;;;;;5.95;3.20;;;;;;;;;;6216298;23;20386;-73
2023/04/26 00:39:28;;;;;;;7.32;3.40;;;;;;;;;;6243020;23;20000;-76
2023/04/26 00:41:53;;;;;;;6.03;3.10;;;;;;;;;;6215057;23;20103;-77
2023/04/26 00:44:18;;;;;;;8.63;3.80;;;;;;;;;;6243479;23;20004;-73
2023/04/26 00:46:44;;;;;;;7.85;3.20;;;;;;;;;;6243307;23;20004;-75
2023/04/26 00:49:15;;;;;;;6.78;3.58;;;;;;;;;;6244533;23;20043;-73
2023/04/26 00:51:42;;;;;;;6.32;3.42;;;;;;;;;;6217364;23;20011;-74
2023/04/26 00:54:07;;;;;;;6.97;3.60;;;;;;;;;;6244940;23;20011;-73
2023/04/26 00:56:35;;;;;;;6.20;3.45;;;;;;;;;;6218087;23;20012;-73
2023/04/26 00:59:01;;;;;;;6.93;3.80;;;;;;;;;;6243550;22;20000;-75
2023/04/26 01:01:27;;;;;;;7.55;3.90;;;;;;;;;;6215830;23;20386;-75
2023/04/26 01:03:52;;;;;;;8.02;3.97;;;;;;;;;;6243616;23;20004;-73
2023/04/26 01:06:18;;;;;;;6.13;3.97;;;;;;;;;;6243770;23;20387;-73
2023/04/26 01:08:43;;;;;;;11.27;3.80;;;;;;;;;;6242481;23;20323;-75
2023/04/26 01:11:09;;;;;;;8.00;4.18;;;;;;;;;;6216727;23;20015;-73
2023/04/26 01:13:36;;;;;;;7.55;4.28;;;;;;;;;;6217100;23;20009;-73
2023/04/26 01:16:03;;;;;;;6.78;3.60;;;;;;;;;;6242853;23;20089;-74
2023/04/26 01:18:28;;;;;;;8.25;3.85;;;;;;;;;;6242913;23;20007;-73
2023/04/26 01:20:55;;;;;;;7.47;4.00;;;;;;;;;;6216837;23;20008;-74
2023/04/26 01:23:21;;;;;;;7.30;3.67;;;;;;;;;;6215791;23;20414;-73
2023/04/26 01:25:47;;;;;;;8.23;3.85;;;;;;;;;;6241074;23;20000;-75
2023/04/26 01:28:12;;;;;;;5.97;3.53;;;;;;;;;;6239803;23;20004;-74
2023/04/26 01:30:37;;;;;;;6.45;4.13;;;;;;;;;;6241845;23;20000;-73
2023/04/26 01:33:03;;;;;;;7.18;4.03;;;;;;;;;;6242753;23;20004;-74
2023/04/26 01:35:28;;;;;;;7.35;4.05;;;;;;;;;;6241163;23;20087;-74
2023/04/26 01:37:54;;;;;;;7.05;3.90;;;;;;;;;;6241266;23;19996;-74
2023/04/26 01:40:20;;;;;;;7.20;4.13;;;;;;;;;;6213746;23;20057;-74
2023/04/26 01:42:45;;;;;;;11.93;4.53;;;;;;;;;;6239264;23;20004;-74
2023/04/26 01:45:10;;;;;;;6.72;3.75;;;;;;;;;;6215268;23;20083;-73
2023/04/26 01:47:36;;;;;;;6.60;3.85;;;;;;;;;;6242210;23;20012;-73
2023/04/26 01:50:01;;;;;;;7.28;3.72;;;;;;;;;;6241889;23;20482;-73
2023/04/26 01:52:26;;;;;;;5.93;3.53;;;;;;;;;;6245257;23;20000;-73
2023/04/26 01:54:52;;;;;;;7.90;4.00;;;;;;;;;;6244055;23;20000;-73
2023/04/26 01:57:17;;;;;;;7.50;4.00;;;;;;;;;;6244690;23;20000;-73
2023/04/26 01:59:42;;;;;;;6.32;3.90;;;;;;;;;;6217055;23;20312;-73
2023/04/26 02:02:08;;;;;;;7.82;3.60;;;;;;;;;;6216153;23;20620;-75
2023/04/26 02:04:33;;;;;;;7.03;3.70;;;;;;;;;;6217157;23;20008;-72
2023/04/26 02:06:58;;;;;;;8.57;3.65;;;;;;;;;;6244137;23;20427;-74
2023/04/26 02:09:24;;;;;;;9.93;4.63;;;;;;;;;;6243812;23;20004;-73
2023/04/26 02:11:49;;;;;;;8.35;3.83;;;;;;;;;;6217939;23;20015;-74
2023/04/26 02:14:15;;;;;;;8.07;4.13;;;;;;;;;;6216072;23;20023;-73
2023/04/26 02:16:40;;;;;;;7.65;4.20;;;;;;;;;;6243530;23;20023;-74
2023/04/26 02:19:09;;;;;;;9.38;4.47;;;;;;;;;;6243703;23;20008;-74
2023/04/26 02:21:50;;;;;;;7.65;4.00;;;;;;;;;;6242989;23;20334;-73
2023/04/26 02:24:15;;;;;;;6.90;3.67;;;;;;;;;;6190269;23;20011;-73
2023/04/26 02:26:41;;;;;;;8.95;4.18;;;;;;;;;;6216619;23;20330;-73
2023/04/26 02:29:06;;;;;;;6.95;3.58;;;;;;;;;;6241672;23;20004;-73
2023/04/26 02:31:31;;;;;;;6.53;3.80;;;;;;;;;;6215943;23;20007;-73
2023/04/26 02:33:57;;;;;;;9.23;4.60;;;;;;;;;;6242306;23;20014;-73
2023/04/26 02:36:22;;;;;;;6.63;3.75;;;;;;;;;;6214760;23;20312;-73
2023/04/26 02:38:47;;;;;;;5.57;3.40;;;;;;;;;;6242927;23;20488;-74
2023/04/26 02:41:13;;;;;;;8.07;4.03;;;;;;;;;;6264497;23;20001;-77
2023/04/26 02:43:38;;;;;;;7.82;4.30;;;;;;;;;;6272537;23;20011;-76
2023/04/26 02:46:06;;;;;;;8.82;4.50;;;;;;;;;;6243689;23;20008;-76
2023/04/26 02:48:31;;;;;;;7.40;4.20;;;;;;;;;;6245768;23;20012;-76
2023/04/26 02:50:57;;;;;;;7.90;4.20;;;;;;;;;;6270273;23;20004;-76
2023/04/26 02:53:22;;;;;;;11.20;4.65;;;;;;;;;;6271375;23;20008;-78
2023/04/26 02:55:47;;;;;;;8.52;4.35;;;;;;;;;;6247094;23;20012;-76
2023/04/26 02:58:13;;;;;;;8.27;4.10;;;;;;;;;;6273539;23;20019;-76
2023/04/26 03:00:43;;;;;;;8.02;3.92;;;;;;;;;;6246829;23;20018;-76
2023/04/26 03:03:09;;;;;;;7.20;4.25;;;;;;;;;;6271664;22;20019;-77
2023/04/26 03:05:34;;;;;;;7.18;4.05;;;;;;;;;;6272336;22;19988;-76
2023/04/26 03:07:59;;;;;;;7.60;3.80;;;;;;;;;;6271460;23;20015;-76
2023/04/26 03:10:25;;;;;;;9.57;4.53;;;;;;;;;;6272623;22;20042;-77
2023/04/26 03:12:50;;;;;;;9.02;4.47;;;;;;;;;;6245634;23;20018;-77
2023/04/26 03:15:15;;;;;;;7.35;4.30;;;;;;;;;;6270353;22;20019;-76
2023/04/26 03:17:42;;;;;;;9.23;5.03;;;;;;;;;;6271261;23;20027;-76
2023/04/26 03:20:07;;;;;;;9.45;4.72;;;;;;;;;;6268819;22;20036;-76
2023/04/26 03:22:33;;;;;;;11.73;4.50;;;;;;;;;;6246776;23;20008;-76
2023/04/26 03:24:58;;;;;;;9.60;4.18;;;;;;;;;;6272523;22;20004;-76
2023/04/26 03:27:23;;;;;;;7.43;4.47;;;;;;;;;;6247081;23;19992;-77
2023/04/26 03:29:49;;;;;;;9.02;4.53;;;;;;;;;;6273376;22;19989;-75
2023/04/26 03:32:15;;;;;;;8.95;4.40;;;;;;;;;;6245708;23;19992;-76
2023/04/26 03:34:40;;;;;;;7.03;4.20;;;;;;;;;;6271561;23;20355;-77
2023/04/26 03:37:05;;;;;;;10.52;4.68;;;;;;;;;;6271321;23;20044;-76
2023/04/26 03:39:31;;;;;;;7.25;4.57;;;;;;;;;;6271654;23;20052;-76
2023/04/26 03:41:56;;;;;;;7.72;4.10;;;;;;;;;;6246754;23;20012;-76
2023/04/26 03:44:21;;;;;;;8.38;4.65;;;;;;;;;;6272283;23;20039;-77
2023/04/26 03:46:47;;;;;;;10.05;4.70;;;;;;;;;;6272012;23;20012;-76
2023/04/26 03:49:12;;;;;;;9.68;4.50;;;;;;;;;;6245647;23;20011;-77
2023/04/26 03:51:37;;;;;;;8.98;4.70;;;;;;;;;;6269990;23;20023;-76
2023/04/26 03:54:03;;;;;;;7.63;4.65;;;;;;;;;;6245973;22;20008;-76
2023/04/26 03:56:28;;;;;;;7.43;4.40;;;;;;;;;;6245467;22;20038;-77
2023/04/26 03:58:54;;;;;;;10.02;4.95;;;;;;;;;;6273558;22;20014;-76
2023/04/26 04:01:19;;;;;;;9.68;4.82;;;;;;;;;;6272862;22;19998;-76
2023/04/26 04:03:45;;;;;;;9.23;4.65;;;;;;;;;;6247014;23;20008;-76
2023/04/26 04:06:11;;;;;;;8.35;4.50;;;;;;;;;;6273479;23;19999;-77
2023/04/26 04:08:37;;;;;;;7.78;4.22;;;;;;;;;;6272432;22;20004;-77
2023/04/26 04:11:02;;;;;;;8.45;4.30;;;;;;;;;;6272875;23;20016;-77
2023/04/26 04:13:27;;;;;;;7.13;3.83;;;;;;;;;;6273488;23;20008;-77
2023/04/26 04:15:53;;;;;;;7.80;4.20;;;;;;;;;;6221863;23;20003;-76
2023/04/26 04:18:18;;;;;;;8.65;4.35;;;;;;;;;;6271131;22;20015;-77
2023/04/26 04:20:44;;;;;;;6.80;4.13;;;;;;;;;;6245499;22;19992;-76
2023/04/26 04:23:10;;;;;;;8.60;4.60;;;;;;;;;;6272257;23;20004;-77
2023/04/26 04:25:35;;;;;;;10.98;4.38;;;;;;;;;;6271584;22;20012;-77
2023/04/26 04:28:01;;;;;;;9.05;4.22;;;;;;;;;;6271153;22;20027;-76
2023/04/26 04:30:28;;;;;;;9.65;4.40;;;;;;;;;;6272479;22;20015;-76
2023/04/26 04:32:54;;;;;;;8.43;4.82;;;;;;;;;;6270707;23;20014;-77
2023/04/26 04:35:19;;;;;;;9.52;4.93;;;;;;;;;;6269747;22;20012;-76
2023/04/26 04:37:45;;;;;;;9.00;5.07;;;;;;;;;;6269086;23;20000;-78
2023/04/26 04:40:12;;;;;;;9.07;5.25;;;;;;;;;;6270346;23;20008;-76
2023/04/26 04:42:37;;;;;;;11.70;5.13;;;;;;;;;;6270820;23;20004;-77
2023/04/26 04:45:04;;;;;;;10.30;5.03;;;;;;;;;;6271630;23;20018;-78
2023/04/26 04:47:29;;;;;;;10.02;4.85;;;;;;;;;;6269875;23;19992;-77
2023/04/26 04:49:54;;;;;;;9.15;4.68;;;;;;;;;;6244991;23;19995;-77
2023/04/26 04:52:20;;;;;;;8.07;4.55;;;;;;;;;;6242204;23;20009;-76
2023/04/26 04:54:46;;;;;;;8.40;4.55;;;;;;;;;;6272042;23;19995;-77
2023/04/26 04:57:12;;;;;;;8.63;4.53;;;;;;;;;;6245904;23;19992;-78
2023/04/26 04:59:38;;;;;;;9.80;4.35;;;;;;;;;;6269232;22;20011;-77
2023/04/26 05:02:04;;;;;;;8.13;4.68;;;;;;;;;;6272723;23;20008;-77
2023/04/26 05:04:32;;;;;;;8.93;4.75;;;;;;;;;;6270315;23;19995;-77
2023/04/26 05:06:58;;;;;;;9.80;4.75;;;;;;;;;;6270780;23;19980;-76
2023/04/26 05:09:23;;;;;;;7.95;5.00;;;;;;;;;;6271129;23;20000;-77
2023/04/26 05:11:49;;;;;;;10.75;5.05;;;;;;;;;;6272198;23;20011;-78
2023/04/26 05:14:14;;;;;;;8.10;4.65;;;;;;;;;;6246477;23;20011;-78
2023/04/26 05:16:40;;;;;;;9.18;4.22;;;;;;;;;;6271969;23;20008;-77
2023/04/26 05:19:05;;;;;;;10.93;4.65;;;;;;;;;;6243996;23;20019;-76
2023/04/26 05:21:31;;;;;;;8.55;5.03;;;;;;;;;;6271157;23;19984;-77
2023/04/26 05:23:56;;;;;;;10.25;4.93;;;;;;;;;;6245607;23;20010;-76
2023/04/26 05:26:21;;;;;;;9.77;4.90;;;;;;;;;;6244116;23;20000;-76
2023/04/26 05:28:47;;;;;;;12.00;5.32;;;;;;;;;;6245878;23;20018;-78
2023/04/26 05:31:12;;;;;;;10.00;5.18;;;;;;;;;;6270378;23;19992;-78
2023/04/26 05:33:38;;;;;;;10.43;4.88;;;;;;;;;;6268292;23;20039;-76
2023/04/26 05:36:03;;;;;;;9.60;4.78;;;;;;;;;;6271458;23;20003;-77
2023/04/26 05:38:29;;;;;;;9.30;4.78;;;;;;;;;;6245279;23;20020;-76
2023/04/26 05:40:54;;;;;;;7.35;4.20;;;;;;;;;;6244968;23;20012;-76
2023/04/26 05:43:20;;;;;;;10.77;5.70;;;;;;;;;;6242441;23;20000;-76
2023/04/26 05:45:52;;;;;;;9.75;5.00;;;;;;;;;;6266731;23;20012;-77
2023/04/26 05:48:20;;;;;;;9.52;4.80;;;;;;;;;;6244289;23;20008;-76
2023/04/26 05:50:45;;;;;;;8.73;5.03;;;;;;;;;;6243518;23;20023;-76
2023/04/26 05:53:11;;;;;;;9.43;4.93;;;;;;;;;;6241700;23;20059;-78
2023/04/26 05:55:36;;;;;;;8.38;4.85;;;;;;;;;;6268791;23;20068;-76
2023/04/26 05:58:01;;;;;;;8.13;4.70;;;;;;;;;;6269774;23;20091;-77
2023/04/26 06:00:27;;;;;;;9.80;4.88;;;;;;;;;;6242407;23;20012;-76
2023/04/26 06:02:52;;;;;;;8.48;4.35;;;;;;;;;;6267514;23;20008;-77
2023/04/26 06:05:18;;;;;;;10.43;4.47;;;;;;;;;;6269116;23;20032;-76
2023/04/26 06:07:44;;;;;;;8.18;4.32;;;;;;;;;;6268740;23;20011;-77
2023/04/26 06:10:10;;;;;;;9.65;5.22;;;;;;;;;;6241398;23;20237;-77
2023/04/26 06:12:35;;;;;;;8.25;4.50;;;;;;;;;;6242679;23;19992;-76
2023/04/26 06:15:01;;;;;;;8.07;4.00;;;;;;;;;;6268351;23;20011;-77
2023/04/26 06:17:26;;;;;;;9.00;4.68;;;;;;;;;;6243650;23;20015;-76
2023/04/26 06:19:51;;;;;;;9.75;4.85;;;;;;;;;;6268625;23;20060;-76
2023/04/26 06:22:17;;;;;;;9.65;4.78;;;;;;;;;;6245191;23;20406;-77
2023/04/26 06:24:42;;;;;;;8.43;4.63;;;;;;;;;;6271903;22;19996;-76
2023/04/26 06:27:07;;;;;;;9.30;4.22;;;;;;;;;;6272693;23;20007;-76
2023/04/26 06:29:33;;;;;;;8.45;4.35;;;;;;;;;;6272154;23;20000;-76
2023/04/26 06:31:58;;;;;;;7.45;4.30;;;;;;;;;;6271784;23;20004;-77
2023/04/26 06:34:23;;;;;;;11.25;4.47;;;;;;;;;;6246404;23;19996;-76
2023/04/26 06:36:49;;;;;;;10.07;4.55;;;;;;;;;;6271832;23;20730;-77
2023/04/26 06:39:16;;;;;;;6.70;3.78;;;;;;;;;;6273523;23;20019;-76
2023/04/26 06:41:42;;;;;;;7.78;4.07;;;;;;;;;;6272408;23;20004;-77
2023/04/26 06:44:07;;;;;;;8.40;4.32;;;;;;;;;;6244867;23;20011;-76
2023/04/26 06:46:33;;;;;;;8.60;4.55;;;;;;;;;;6270239;23;20000;-77
2023/04/26 06:48:58;;;;;;;10.85;4.35;;;;;;;;;;6268551;23;20004;-77
2023/04/26 06:51:23;;;;;;;12.77;4.95;;;;;;;;;;6244230;23;20012;-77
2023/04/26 06:53:49;;;;;;;8.63;4.35;;;;;;;;;;6268812;23;20024;-76
2023/04/26 06:56:14;;;;;;;10.93;4.47;;;;;;;;;;6265451;23;20000;-77
2023/04/26 06:58:58;;;;;;;10.52;3.92;;;;;;;;;;6264663;22;20000;-77
2023/04/26 07:01:23;;;;;;;7.70;3.90;;;;;;;;;;6267794;23;20004;-77
2023/04/26 07:03:48;;;;;;;11.15;3.75;;;;;;;;;;6265973;23;20000;-76
2023/04/26 07:06:14;;;;;;;7.85;4.30;;;;;;;;;;6261342;23;20057;-77
2023/04/26 07:08:39;;;;;;;9.85;4.03;;;;;;;;;;6235442;23;20011;-78
2023/04/26 07:11:09;;;;;;;10.05;3.92;;;;;;;;;;6238272;23;20334;-78
2023/04/26 07:13:34;;;;;;;7.88;3.97;;;;;;;;;;6260180;23;20066;-76
2023/04/26 07:16:00;;;;;;;8.20;4.05;;;;;;;;;;6259562;23;20004;-78
2023/04/26 07:18:25;;;;;;;10.38;3.70;;;;;;;;;;6260035;23;20008;-76
2023/04/26 07:20:51;;;;;;;8.88;4.03;;;;;;;;;;6264511;23;20012;-78
2023/04/26 07:23:16;;;;;;;9.43;3.95;;;;;;;;;;6237943;23;20030;-77
2023/04/26 07:25:41;;;;;;;8.98;4.13;;;;;;;;;;6262806;23;20085;-78
2023/04/26 07:28:07;;;;;;;6.50;3.50;;;;;;;;;;6236300;23;20011;-78
2023/04/26 07:30:32;;;;;;;7.78;4.20;;;;;;;;;;6261223;23;20027;-77
2023/04/26 07:32:58;;;;;;;7.45;3.80;;;;;;;;;;6234715;23;20008;-77
2023/04/26 07:35:23;;;;;;;6.70;3.45;;;;;;;;;;6260104;23;20085;-78
2023/04/26 07:37:48;;;;;;;7.53;3.40;;;;;;;;;;6260468;23;20100;-76
2023/04/26 07:40:14;;;;;;;8.68;3.20;;;;;;;;;;6235578;23;20028;-77
2023/04/26 07:42:39;;;;;;;9.25;3.30;;;;;;;;;;6235717;23;20004;-78
2023/04/26 07:45:05;;;;;;;7.28;3.28;;;;;;;;;;6231854;23;20035;-78
2023/04/26 07:47:31;;;;;;;6.03;2.80;;;;;;;;;;6258892;23;20007;-78
2023/04/26 07:49:56;;;;;;;7.32;2.63;;;;;;;;;;6231865;23;20014;-78
2023/04/26 07:52:21;;;;;;;3.70;1.75;;;;;;;;;;6257585;23;20025;-79
2023/04/26 07:54:47;;;;;;;4.28;1.58;;;;;;;;;;6229811;23;20008;-78
2023/04/26 07:57:12;;;;;;;4.80;1.65;;;;;;;;;;6255502;23;20003;-77
2023/04/26 07:59:37;;;;;;;4.88;1.30;;;;;;;;;;6252561;22;20008;-79
2023/04/26 08:02:03;;;;;;;5.13;1.88;;;;;;;;;;6257179;23;20008;-79
2023/04/26 08:04:33;;;;;;;3.50;1.50;;;;;;;;;;6257962;23;20035;-76
2023/04/26 08:07:00;;;;;;;4.93;1.60;;;;;;;;;;6259947;23;20075;-78
2023/04/26 08:09:25;;;;;;;3.17;1.30;;;;;;;;;;6254977;23;20004;-78
2023/04/26 08:11:51;;;;;;;4.13;1.50;;;;;;;;;;6229556;23;20015;-76
2023/04/26 08:14:16;;;;;;;4.63;1.35;;;;;;;;;;6253499;23;20069;-78
2023/04/26 08:16:42;;;;;;;4.78;1.77;;;;;;;;;;6249955;23;20008;-78
2023/04/26 08:19:08;;;;;;;5.07;1.90;;;;;;;;;;6257298;23;20482;-78
2023/04/26 08:21:33;;;;;;;4.10;1.50;;;;;;;;;;6257134;23;20011;-78
2023/04/26 08:23:58;;;;;;;2.85;1.40;;;;;;;;;;6255371;23;20004;-79
2023/04/26 08:26:24;;;;;;;4.60;1.48;;;;;;;;;;6255624;23;20083;-76
2023/04/26 08:28:49;;;;;;;5.57;1.55;;;;;;;;;;6255120;23;20079;-77
2023/04/26 08:31:15;;;;;;;4.50;1.50;;;;;;;;;;6254228;23;20342;-77
2023/04/26 08:33:40;;;;;;;2.90;1.05;;;;;;;;;;6245859;23;20004;-77
2023/04/26 08:36:06;;;;;;;4.45;1.13;;;;;;;;;;6218495;23;20012;-78
2023/04/26 08:38:32;;;;;;;3.75;1.00;;;;;;;;;;6216820;23;20057;-77
2023/04/26 08:41:01;;;;;;;5.05;1.20;;;;;;;;;;6219706;23;20043;-77
2023/04/26 08:43:28;;;;;;;4.95;1.52;;;;;;;;;;6245355;23;20011;-76
2023/04/26 08:45:54;;;;;;;4.45;1.42;;;;;;;;;;6246458;23;20004;-78
2023/04/26 08:48:20;;;;;;;7.63;1.80;;;;;;;;;;6245834;23;20008;-78
2023/04/26 08:50:47;;;;;;;4.55;1.60;;;;;;;;;;6246967;23;20004;-76
2023/04/26 08:53:20;;;;;;;3.80;1.38;;;;;;;;;;6218632;23;20740;-76
2023/04/26 08:55:49;;;;;;;2.95;1.63;;;;;;;;;;6245017;23;20433;-78
2023/04/26 08:58:16;;;;;;;3.88;1.48;;;;;;;;;;6245945;23;20007;-77
2023/04/26 09:00:44;;;;;;;5.57;1.90;;;;;;;;;;6217999;22;20019;-76
2023/04/26 09:03:09;;;;;;;3.05;1.50;;;;;;;;;;6219850;23;20435;-77
2023/04/26 09:05:35;;;;;;;3.05;1.70;;;;;;;;;;6220285;23;20018;-78
2023/04/26 09:08:02;;;;;;;4.60;1.98;;;;;;;;;;6243544;23;20008;-79
2023/04/26 09:10:29;;;;;;;5.93;1.80;;;;;;;;;;6247667;23;20308;-76
2023/04/26 09:12:55;;;;;;;3.60;1.98;;;;;;;;;;6247718;23;20004;-79
2023/04/26 09:15:22;;;;;;;4.15;1.90;;;;;;;;;;6244883;23;20058;-79
2023/04/26 09:17:48;;;;;;;4.47;1.60;;;;;;;;;;6246409;23;20011;-77
2023/04/26 09:20:20;;;;;;;3.53;1.60;;;;;;;;;;6217440;23;20012;-79
2023/04/26 09:22:46;;;;;;;7.07;1.88;;;;;;;;;;6243001;23;20008;-79
2023/04/26 09:25:12;;;;;;;5.13;1.73;;;;;;;;;;6244109;23;20014;-79
2023/04/26 09:27:39;;;;;;;3.10;1.70;;;;;;;;;;6243246;23;20008;-77
2023/04/26 09:30:12;;;;;;;3.30;1.48;;;;;;;;;;6243550;23;20004;-79
2023/04/26 09:32:50;;;;;;;3.17;1.47;;;;;;;;;;6214775;23;20012;-78
2023/04/26 09:35:24;;;;;;;4.07;1.50;;;;;;;;;;6219327;23;20282;-78
2023/04/26 09:38:00;;;;;;;6.05;1.90;;;;;;;;;;6246826;23;20000;-78
2023/04/26 09:40:27;;;;;;;2.95;1.40;;;;;;;;;;6243077;23;20419;-79
2023/04/26 09:43:00;;;;;;;3.55;1.85;;;;;;;;;;6216813;23;20012;-77
2023/04/26 09:45:28;;;;;;;4.88;1.65;;;;;;;;;;6242773;23;20000;-77
2023/04/26 09:47:54;;;;;;;4.88;1.67;;;;;;;;;;6242295;23;20058;-78
2023/04/26 09:50:28;;;;;;;8.32;2.03;;;;;;;;;;6218418;23;20056;-78
2023/04/26 09:52:53;;;;;;;5.85;1.48;;;;;;;;;;6217313;23;20008;-78
2023/04/26 09:55:27;;;;;;;4.88;1.60;;;;;;;;;;6246540;23;20010;-78
2023/04/26 09:57:52;;;;;;;2.55;1.42;;;;;;;;;;6245248;23;20035;-78
2023/04/26 10:00:19;;;;;;;4.50;1.65;;;;;;;;;;6219433;23;20514;-77
2023/04/26 10:02:46;;;;;;;3.38;1.70;;;;;;;;;;6246506;23;20004;-78
2023/04/26 10:05:11;;;;;;;5.65;1.55;;;;;;;;;;6220137;23;20012;-78
2023/04/26 10:07:37;;;;;;;3.03;1.60;;;;;;;;;;6248038;23;20012;-76
2023/04/26 10:10:04;;;;;;;4.50;1.75;;;;;;;;;;6249503;23;20016;-78
2023/04/26 10:12:29;;;;;;;3.53;1.65;;;;;;;;;;6222839;23;20012;-79
2023/04/26 10:14:56;;;;;;;4.47;2.00;;;;;;;;;;6222121;23;20012;-77
2023/04/26 10:17:22;;;;;;;3.63;1.70;;;;;;;;;;6249528;23;20003;-79
2023/04/26 10:19:51;;;;;;;4.55;1.77;;;;;;;;;;6219255;23;20072;-77
2023/04/26 10:22:22;;;;;;;4.95;1.92;;;;;;;;;;6219498;23;20411;-78
2023/04/26 10:24:48;;;;;;;8.18;2.20;;;;;;;;;;6248981;23;20083;-76
2023/04/26 10:27:15;;;;;;;4.13;1.65;;;;;;;;;;6224231;23;20132;-78
2023/04/26 10:29:55;;;;;;;6.78;2.30;;;;;;;;;;6247868;23;20010;-79
2023/04/26 10:32:21;;;;;;;3.92;1.88;;;;;;;;;;6246860;23;20008;-79
2023/04/26 10:35:12;;;;;;;3.33;1.75;;;;;;;;;;6246725;23;20012;-79
2023/04/26 10:38:09;;;;;;;4.38;2.08;;;;;;;;;;6247366;23;19997;-77
2023/04/26 10:40:38;;;;;;;5.60;2.40;;;;;;;;;;6249968;23;19996;-78
2023/04/26 10:43:13;;;;;;;3.70;1.88;;;;;;;;;;6249598;23;20004;-78
2023/04/26 10:45:40;;;;;;;4.20;1.77;;;;;;;;;;6249955;23;20004;-77
2023/04/26 10:48:31;;;;;;;6.15;2.17;;;;;;;;;;6223160;23;20027;-77
2023/04/26 10:51:00;;;;;;;4.70;2.13;;;;;;;;;;6222126;23;20015;-78
2023/04/26 10:53:26;;;;;;;3.95;2.05;;;;;;;;;;6221218;23;20024;-77
2023/04/26 10:55:51;;;;;;;4.30;2.25;;;;;;;;;;6219244;23;20012;-77
2023/04/26 10:58:29;;;;;;;3.95;1.83;;;;;;;;;;6249725;23;20008;-78
2023/04/26 11:01:29;;;;;;;4.88;1.90;;;;;;;;;;6222303;23;20012;-76
2023/04/26 11:03:57;;;;;;;4.28;1.80;;;;;;;;;;6181378;23;20087;-77
2023/04/26 11:06:23;;;;;;;4.65;1.75;;;;;;;;;;6249820;23;20452;-75
2023/04/26 11:08:49;;;;;;;6.00;2.10;;;;;;;;;;6244467;23;20007;-76
2023/04/26 11:11:18;;;;;;;5.95;2.35;;;;;;;;;;6233940;23;20455;-75
2023/04/26 11:13:44;;;;;;;4.65;2.10;;;;;;;;;;6233649;23;20401;-75
2023/04/26 11:16:11;;;;;;;6.90;2.33;;;;;;;;;;6234410;23;20419;-74
2023/04/26 11:18:41;;;;;;;6.50;2.40;;;;;;;;;;6234286;23;20003;-76
2023/04/26 11:21:07;;;;;;;6.03;2.60;;;;;;;;;;6205130;23;20087;-75
2023/04/26 11:23:34;;;;;;;4.60;2.20;;;;;;;;;;6206412;23;20095;-76
2023/04/26 11:26:07;;;;;;;4.80;2.30;;;;;;;;;;6236507;23;20004;-74
2023/04/26 11:28:34;;;;;;;7.93;2.28;;;;;;;;;;6235418;23;20004;-75
2023/04/26 11:31:00;;;;;;;5.15;2.17;;;;;;;;;;6233931;23;20004;-75
2023/04/26 11:33:26;;;;;;;4.13;2.03;;;;;;;;;;6234030;23;20027;-75
2023/04/26 11:35:53;;;;;;;4.97;2.40;;;;;;;;;;6234177;23;20011;-75
2023/04/26 11:38:22;;;;;;;4.93;2.00;;;;;;;;;;6232751;23;20000;-76
2023/04/26 11:40:59;;;;;;;6.25;2.15;;;;;;;;;;6231190;23;20016;-76
2023/04/26 11:43:38;;;;;;;4.97;1.85;;;;;;;;;;6235971;23;20137;-76
2023/04/26 11:46:05;;;;;;;5.18;2.10;;;;;;;;;;6235367;23;20109;-75
2023/04/26 11:48:32;;;;;;;4.47;1.92;;;;;;;;;;6233681;23;20490;-76
2023/04/26 11:50:59;;;;;;;6.80;2.10;;;;;;;;;;6236023;23;20556;-75
2023/04/26 11:53:33;;;;;;;4.35;1.92;;;;;;;;;;6206949;23;20099;-75
2023/04/26 11:55:59;;;;;;;4.00;1.92;;;;;;;;;;6206783;23;20083;-75
2023/04/26 11:58:25;;;;;;;4.95;2.03;;;;;;;;;;6207663;22;20372;-75
2023/04/26 12:00:57;;;;;;;5.57;2.00;;;;;;;;;;6209117;23;20015;-75
2023/04/26 12:03:27;;;;;;;4.20;2.00;;;;;;;;;;6207980;23;20015;-75
2023/04/26 12:05:54;;;;;;;7.20;2.17;;;;;;;;;;6234142;23;20011;-75
2023/04/26 12:08:23;;;;;;;3.70;2.00;;;;;;;;;;6235552;23;20032;-75
2023/04/26 12:10:48;;;;;;;8.82;2.10;;;;;;;;;;6236048;23;20010;-76
2023/04/26 12:13:14;;;;;;;4.40;2.00;;;;;;;;;;6234324;23;20028;-75
2023/04/26 12:15:39;;;;;;;6.90;2.00;;;;;;;;;;6207609;23;20081;-77
2023/04/26 12:18:09;;;;;;;4.95;2.05;;;;;;;;;;6236060;23;20011;-76
2023/04/26 12:20:40;;;;;;;7.20;2.10;;;;;;;;;;6236284;23;20015;-75
2023/04/26 12:23:11;;;;;;;5.45;1.88;;;;;;;;;;6235214;23;20040;-74
2023/04/26 12:25:38;;;;;;;4.88;1.88;;;;;;;;;;6232550;23;20026;-75
2023/04/26 12:28:13;;;;;;;4.57;1.90;;;;;;;;;;6234355;23;20438;-74
2023/04/26 12:30:39;;;;;;;7.55;2.40;;;;;;;;;;6233630;23;20083;-77
2023/04/26 12:33:05;;;;;;;6.22;2.00;;;;;;;;;;6237203;23;20008;-74
2023/04/26 12:35:31;;;;;;;5.60;2.28;;;;;;;;;;6207190;23;20015;-74
2023/04/26 12:37:59;;;;;;;5.32;2.25;;;;;;;;;;6234919;23;20019;-76
2023/04/26 12:40:25;;;;;;;5.15;2.10;;;;;;;;;;6207388;23;20016;-75
2023/04/26 12:42:50;;;;;;;5.22;2.25;;;;;;;;;;6235448;23;20014;-74
2023/04/26 12:45:19;;;;;;;5.95;2.30;;;;;;;;;;6234372;23;20004;-76
2023/04/26 12:47:45;;;;;;;4.75;2.40;;;;;;;;;;6234211;23;20533;-76
2023/04/26 12:50:11;;;;;;;4.88;2.10;;;;;;;;;;6208241;23;20089;-75
2023/04/26 12:52:38;;;;;;;4.60;2.28;;;;;;;;;;6206931;23;20102;-75
2023/04/26 12:55:05;;;;;;;6.32;2.58;;;;;;;;;;6234957;23;20113;-77
2023/04/26 12:57:31;;;;;;;4.28;1.85;;;;;;;;;;6235017;23;20011;-75
2023/04/26 12:59:56;;;;;;;5.45;2.33;;;;;;;;;;6235147;22;20004;-75
2023/04/26 13:02:21;;;;;;;4.90;2.20;;;;;;;;;;6207543;23;20386;-77
2023/04/26 13:04:47;;;;;;;4.60;1.90;;;;;;;;;;6208345;23;20014;-76
2023/04/26 13:07:12;;;;;;;4.68;2.45;;;;;;;;;;6233746;23;20091;-74
2023/04/26 13:09:37;;;;;;;6.55;2.35;;;;;;;;;;6233776;23;20058;-76
2023/04/26 13:12:03;;;;;;;6.63;2.00;;;;;;;;;;6208646;23;20038;-75
2023/04/26 13:14:29;;;;;;;6.03;2.63;;;;;;;;;;6205116;23;20015;-76
2023/04/26 13:16:54;;;;;;;3.78;1.98;;;;;;;;;;6233434;23;20010;-76
2023/04/26 13:19:19;;;;;;;3.80;1.98;;;;;;;;;;6232204;23;20614;-77
2023/04/26 13:21:45;;;;;;;5.45;2.60;;;;;;;;;;6232893;23;20008;-78
2023/04/26 13:24:10;;;;;;;5.32;2.40;;;;;;;;;;6207285;23;20035;-75
2023/04/26 13:26:36;;;;;;;4.60;2.15;;;;;;;;;;6234164;23;20426;-73
2023/04/26 13:29:03;;;;;;;6.47;2.88;;;;;;;;;;6208046;23;20099;-73
2023/04/26 13:31:28;;;;;;;4.43;2.22;;;;;;;;;;6180853;23;20019;-74
2023/04/26 13:33:53;;;;;;;4.55;2.60;;;;;;;;;;6235709;23;20008;-73
2023/04/26 13:36:19;;;;;;;6.82;2.83;;;;;;;;;;6207802;23;20004;-73
2023/04/26 13:38:44;;;;;;;5.22;2.63;;;;;;;;;;6204269;23;20319;-74
2023/04/26 13:41:09;;;;;;;6.88;2.65;;;;;;;;;;6234805;23;20043;-73
2023/04/26 13:43:35;;;;;;;7.45;2.85;;;;;;;;;;6207209;23;20332;-76
2023/04/26 13:46:00;;;;;;;4.13;2.47;;;;;;;;;;6207766;23;20208;-73
2023/04/26 13:48:26;;;;;;;4.68;2.42;;;;;;;;;;6234282;23;20008;-73
2023/04/26 13:50:52;;;;;;;6.78;3.00;;;;;;;;;;6208874;23;20023;-76
2023/04/26 13:53:20;;;;;;;5.22;2.55;;;;;;;;;;6235380;23;20376;-73
2023/04/26 13:55:46;;;;;;;5.35;2.40;;;;;;;;;;6235428;23;20031;-74
2023/04/26 13:58:12;;;;;;;4.28;2.45;;;;;;;;;;6234228;23;20000;-76
2023/04/26 14:00:37;;;;;;;3.97;2.20;;;;;;;;;;6231687;22;20018;-72
2023/04/26 14:03:03;;;;;;;4.80;2.58;;;;;;;;;;6234791;23;20401;-73
2023/04/26 14:05:28;;;;;;;5.65;2.63;;;;;;;;;;6184749;23;20177;-74
2023/04/26 14:07:53;;;;;;;5.53;2.53;;;;;;;;;;6234259;23;20015;-74
2023/04/26 14:10:19;;;;;;;3.90;2.10;;;;;;;;;;6234615;23;20004;-77
2023/04/26 14:12:44;;;;;;;5.00;2.90;;;;;;;;;;6208556;23;20130;-75
2023/04/26 14:15:11;;;;;;;4.97;2.78;;;;;;;;;;6234956;23;20039;-74
2023/04/26 14:17:37;;;;;;;6.07;2.63;;;;;;;;;;6234499;23;20003;-76
2023/04/26 14:20:02;;;;;;;4.47;2.30;;;;;;;;;;6235159;23;20092;-74
2023/04/26 14:22:28;;;;;;;4.53;2.65;;;;;;;;;;6233717;23;20008;-74
2023/04/26 14:24:53;;;;;;;4.25;2.80;;;;;;;;;;6205170;23;20018;-76
2023/04/26 14:27:19;;;;;;;5.35;2.97;;;;;;;;;;6233389;23;20031;-74
2023/04/26 14:29:44;;;;;;;7.13;2.42;;;;;;;;;;6232871;23;20532;-74
2023/04/26 14:32:10;;;;;;;3.42;2.15;;;;;;;;;;6233707;23;20008;-74
2023/04/26 14:34:37;;;;;;;4.57;2.40;;;;;;;;;;6205277;23;20008;-74
2023/04/26 14:37:04;;;;;;;4.97;2.50;;;;;;;;;;6233024;23;20011;-75
2023/04/26 14:39:30;;;;;;;5.70;2.42;;;;;;;;;;6208841;23;20008;-74
2023/04/26 14:41:56;;;;;;;5.70;2.17;;;;;;;;;;6236654;23;20014;-73